createdAt,value
2022-09-06T00:02:22.046Z,100920.59
2022-09-06T00:04:57.865Z,100909.44
2022-09-06T00:07:32.317Z,100920.59
2022-09-06T00:10:08.066Z,100918.03
2022-09-06T00:12:42.465Z,100911.97
2022-09-06T00:15:17.014Z,100915.75
2022-09-06T00:17:51.781Z,100909.44
2022-09-06T00:20:28.092Z,100913.47
2022-09-06T00:23:04.069Z,100912.94
2022-09-06T00:25:38.491Z,100909.13
2022-09-06T00:28:12.807Z,100909.34
2022-09-06T00:30:47.831Z,100906.56
2022-09-06T00:33:21.955Z,100905.56
2022-09-06T00:36:01.525Z,100893.12
2022-09-06T00:38:35.742Z,100893.12
2022-09-06T00:41:13.023Z,100908.13
2022-09-06T00:43:47.377Z,100902.03
2022-09-06T00:46:24.713Z,100905.56
2022-09-06T00:49:03.634Z,100904.81
2022-09-06T00:51:39.924Z,100903.00
2022-09-06T00:54:14.058Z,100898.37
2022-09-06T00:56:48.726Z,100902.72
2022-09-06T00:59:23.250Z,100903.47
2022-09-06T01:01:57.762Z,100908.06
2022-09-06T01:04:32.743Z,100903.94
2022-09-06T01:07:19.833Z,100902.63
2022-09-06T01:10:09.979Z,100910.22
2022-09-06T01:12:58.620Z,100901.81
2022-09-06T01:15:46.554Z,100901.75
2022-09-06T01:18:30.581Z,100909.03
2022-09-06T01:21:30.628Z,100901.75
2022-09-06T01:24:52.603Z,100896.50
2022-09-06T01:27:55.305Z,100910.81
2022-09-06T01:30:32.790Z,100899.50
2022-09-06T01:33:15.530Z,100904.09
2022-09-06T01:35:55.564Z,100905.41
2022-09-06T01:38:29.880Z,100905.69
2022-09-06T01:41:04.233Z,100896.62
2022-09-06T01:43:42.875Z,100907.75
2022-09-06T01:46:27.421Z,100904.06
2022-09-06T01:49:19.518Z,100904.41
2022-09-06T01:52:06.795Z,100899.56
2022-09-06T01:54:58.089Z,100892.62
2022-09-06T01:57:55.128Z,100892.31
2022-09-06T02:00:30.677Z,100894.81
2022-09-06T02:03:12.312Z,100895.50
2022-09-06T02:05:51.608Z,100889.72
2022-09-06T02:08:32.686Z,100904.59
2022-09-06T02:11:09.938Z,100894.94
2022-09-06T02:13:50.683Z,100885.13
2022-09-06T02:16:28.004Z,100884.81
2022-09-06T02:19:07.890Z,100884.59
2022-09-06T02:21:45.457Z,100884.28
2022-09-06T02:24:23.593Z,100877.50
2022-09-06T02:26:58.007Z,100873.47
2022-09-06T02:29:32.487Z,100886.16
2022-09-06T02:32:14.510Z,100890.91
2022-09-06T02:34:49.608Z,100883.66
2022-09-06T02:37:26.270Z,100881.44
2022-09-06T02:40:00.694Z,100884.47
2022-09-06T02:42:34.876Z,100874.84
2022-09-06T02:45:10.149Z,100890.50
2022-09-06T02:47:45.586Z,100892.97
2022-09-06T02:50:19.968Z,100882.16
2022-09-06T02:53:06.571Z,100888.53
2022-09-06T02:55:41.524Z,100884.28
2022-09-06T02:58:16.537Z,100882.88
2022-09-06T03:00:51.436Z,100891.47
2022-09-06T03:03:27.489Z,100884.34
2022-09-06T03:06:02.308Z,100885.38
2022-09-06T03:08:36.770Z,100880.47
2022-09-06T03:11:11.188Z,100877.66
2022-09-06T03:13:45.257Z,100879.47
2022-09-06T03:16:20.809Z,100881.53
2022-09-06T03:18:56.398Z,100880.56
2022-09-06T03:21:30.846Z,100880.00
2022-09-06T03:24:05.095Z,100878.00
2022-09-06T03:26:39.435Z,100870.94
2022-09-06T03:29:13.472Z,100882.53
2022-09-06T03:31:47.806Z,100874.63
2022-09-06T03:34:23.312Z,100877.66
2022-09-06T03:36:57.710Z,100875.53
2022-09-06T03:39:31.925Z,100878.44
2022-09-06T03:42:06.426Z,100880.72
2022-09-06T03:44:40.613Z,100879.06
2022-09-06T03:47:18.875Z,100885.53
2022-09-06T03:49:55.280Z,100884.16
2022-09-06T03:52:29.600Z,100885.34
2022-09-06T03:55:04.083Z,100885.50
2022-09-06T03:57:38.452Z,100886.59
2022-09-06T04:00:15.311Z,100891.22
2022-09-06T04:02:49.684Z,100891.13
2022-09-06T04:05:25.193Z,100891.78
2022-09-06T04:07:59.595Z,100879.91
2022-09-06T04:10:33.900Z,100886.06
2022-09-06T04:13:08.301Z,100889.09
2022-09-06T04:15:46.209Z,100885.25
2022-09-06T04:18:22.002Z,100892.41
2022-09-06T04:20:58.099Z,100889.22
2022-09-06T04:23:36.420Z,100887.41
2022-09-06T04:26:13.396Z,100884.91
2022-09-06T04:28:48.018Z,100889.28
2022-09-06T04:31:22.263Z,100881.16
2022-09-06T04:33:56.945Z,100887.97
2022-09-06T04:36:32.430Z,100879.34
2022-09-06T04:39:07.032Z,100863.81
2022-09-06T04:41:41.129Z,100886.59
2022-09-06T04:44:15.474Z,100875.00
2022-09-06T04:46:49.779Z,100878.94
2022-09-06T04:49:24.571Z,100885.63
2022-09-06T04:52:00.090Z,100878.69
2022-09-06T04:54:34.548Z,100881.47
2022-09-06T04:57:08.908Z,100877.72
2022-09-06T04:59:43.307Z,100873.69
2022-09-06T05:02:20.296Z,100864.19
2022-09-06T05:04:55.392Z,100877.97
2022-09-06T05:07:30.846Z,100871.00
2022-09-06T05:10:06.338Z,100869.75
2022-09-06T05:12:44.182Z,100878.50
2022-09-06T05:15:19.370Z,100877.81
2022-09-06T05:17:53.599Z,100891.50
2022-09-06T05:20:28.096Z,100887.25
2022-09-06T05:23:03.596Z,100894.91
2022-09-06T05:25:37.955Z,100889.16
2022-09-06T05:28:12.028Z,100892.50
2022-09-06T05:30:46.814Z,100888.25
2022-09-06T05:33:23.089Z,100892.81
2022-09-06T05:35:57.636Z,100891.59
2022-09-06T05:38:33.487Z,100889.91
2022-09-06T05:41:08.123Z,100894.97
2022-09-06T05:43:42.375Z,100885.66
2022-09-06T05:46:17.707Z,100886.50
2022-09-06T05:48:55.753Z,100889.56
2022-09-06T05:51:30.216Z,100891.63
2022-09-06T05:54:05.847Z,100899.53
2022-09-06T05:56:40.225Z,100907.69
2022-09-06T05:59:14.487Z,100907.87
2022-09-06T06:01:53.056Z,100897.50
2022-09-06T06:04:27.555Z,100888.37
2022-09-06T06:07:01.766Z,100887.63
2022-09-06T06:09:37.955Z,100893.97
2022-09-06T06:12:12.087Z,100896.03
2022-09-06T06:14:49.257Z,100887.97
2022-09-06T06:17:23.639Z,100898.34
2022-09-06T06:19:58.442Z,100896.62
2022-09-06T06:22:32.511Z,100890.53
2022-09-06T06:25:09.076Z,100888.47
2022-09-06T06:27:46.307Z,100891.56
2022-09-06T06:30:20.692Z,100900.16
2022-09-06T06:32:54.823Z,100903.69
2022-09-06T06:35:29.174Z,100901.16
2022-09-06T06:38:03.733Z,100902.66
2022-09-06T06:40:39.550Z,100905.97
2022-09-06T06:43:14.680Z,100907.50
2022-09-06T06:45:51.070Z,100908.25
2022-09-06T06:48:25.293Z,100901.87
2022-09-06T06:51:00.043Z,100908.22
2022-09-06T06:53:35.398Z,100909.72
2022-09-06T06:56:19.855Z,100903.91
2022-09-06T06:58:57.809Z,100909.69
2022-09-06T07:01:34.314Z,100918.06
2022-09-06T07:04:10.575Z,100914.72
2022-09-06T07:12:41.038Z,100915.66
2022-09-06T07:15:15.199Z,100914.91
2022-09-06T07:17:49.727Z,100922.22
2022-09-06T07:20:24.130Z,100908.25
2022-09-06T07:25:55.619Z,100914.28
2022-09-06T07:28:31.821Z,100911.66
2022-09-06T07:31:06.304Z,100915.75
2022-09-06T07:33:41.097Z,100918.69
2022-09-06T07:36:18.174Z,100911.97
2022-09-06T07:38:53.726Z,100909.16
2022-09-06T07:41:28.098Z,100910.63
2022-09-06T07:44:04.309Z,100907.47
2022-09-06T07:46:38.526Z,100915.75
2022-09-06T07:49:13.082Z,100910.84
2022-09-06T07:51:47.340Z,100912.91
2022-09-06T07:54:30.797Z,100901.00
2022-09-06T07:57:05.310Z,100905.41
2022-09-06T07:59:42.996Z,100902.34
2022-09-06T08:02:18.033Z,100908.09
2022-09-06T08:04:52.441Z,100903.25
2022-09-06T08:07:41.779Z,100905.19
2022-09-06T08:10:18.456Z,100913.66
2022-09-06T08:12:54.447Z,100913.69
2022-09-06T08:15:33.479Z,100899.41
2022-09-06T08:18:07.815Z,100893.28
2022-09-06T08:20:42.249Z,100895.19
2022-09-06T08:23:16.287Z,100885.25
2022-09-06T08:25:58.641Z,100889.66
2022-09-06T08:28:32.756Z,100890.75
2022-09-06T08:31:10.305Z,100891.47
2022-09-06T08:33:45.685Z,100886.31
2022-09-06T08:36:20.555Z,100882.78
2022-09-06T08:38:54.844Z,100887.25
2022-09-06T08:41:34.331Z,100887.25
2022-09-06T08:47:10.567Z,100886.44
2022-09-06T08:49:46.320Z,100875.81
2022-09-06T08:52:31.388Z,100880.38
2022-09-06T08:55:23.309Z,100872.69
2022-09-06T08:58:13.402Z,100870.22
2022-09-06T09:00:51.850Z,100860.50
2022-09-06T09:03:32.475Z,100863.34
2022-09-06T09:06:10.372Z,100863.28
2022-09-06T09:08:53.600Z,100859.94
2022-09-06T09:11:28.817Z,100858.28
2022-09-06T09:14:06.891Z,100865.09
2022-09-06T09:16:41.021Z,100860.97
2022-09-06T09:19:16.944Z,100852.19
2022-09-06T09:21:51.152Z,100854.53
2022-09-06T09:24:25.475Z,100842.00
2022-09-06T09:27:05.160Z,100831.69
2022-09-06T09:32:53.322Z,100830.50
2022-09-06T09:35:36.311Z,100834.06
2022-09-06T09:38:12.416Z,100821.34
2022-09-06T09:40:52.144Z,100813.31
2022-09-06T09:43:28.050Z,100807.91
2022-09-06T09:46:17.744Z,100803.22
2022-09-06T09:49:06.769Z,100808.31
2022-09-06T09:51:44.066Z,100808.62
2022-09-06T09:54:33.138Z,100804.88
2022-09-06T09:57:11.911Z,100806.41
2022-09-06T09:59:49.334Z,100802.03
2022-09-06T10:02:28.628Z,100793.97
2022-09-06T10:05:06.460Z,100794.19
2022-09-06T10:07:47.460Z,100785.41
2022-09-06T10:10:24.335Z,100782.69
2022-09-06T10:13:20.379Z,100777.84
2022-09-06T10:15:55.650Z,100782.91
2022-09-06T10:18:36.002Z,100776.37
2022-09-06T10:21:12.911Z,100774.03
2022-09-06T10:27:02.838Z,100757.94
2022-09-06T10:29:45.360Z,100755.50
2022-09-06T10:32:37.207Z,100758.53
2022-09-06T10:35:17.777Z,100749.31
2022-09-06T10:38:13.469Z,100759.09
2022-09-06T10:41:02.290Z,100744.56
2022-09-06T10:43:47.150Z,100752.66
2022-09-06T10:46:28.378Z,100750.41
2022-09-06T10:49:03.127Z,100743.84
2022-09-06T10:51:41.482Z,100746.84
2022-09-06T10:54:18.495Z,100747.41
2022-09-06T10:56:59.570Z,100744.22
2022-09-06T10:59:37.198Z,100744.00
2022-09-06T11:02:23.528Z,100734.88
2022-09-06T11:10:57.643Z,100727.06
2022-09-06T11:13:33.890Z,100732.88
2022-09-06T11:16:14.502Z,100728.75
2022-09-06T11:18:54.439Z,100729.38
2022-09-06T11:22:03.994Z,100722.50
2022-09-06T11:24:57.947Z,100719.91
2022-09-06T11:27:37.507Z,100709.78
2022-09-06T11:30:16.887Z,100706.91
2022-09-06T11:32:52.466Z,100698.94
2022-09-06T11:35:28.752Z,100709.69
2022-09-06T11:38:05.762Z,100698.63
2022-09-06T11:40:42.456Z,100694.72
2022-09-06T11:43:19.843Z,100695.47
2022-09-06T11:45:55.429Z,100700.38
2022-09-06T11:48:37.517Z,100700.22
2022-09-06T11:51:12.498Z,100696.50
2022-09-06T11:54:20.091Z,100698.56
2022-09-06T11:56:59.569Z,100692.16
2022-09-06T11:59:37.142Z,100691.53
2022-09-06T12:02:35.311Z,100683.84
2022-09-06T12:05:27.262Z,100685.41
2022-09-06T12:08:32.999Z,100689.22
2022-09-06T12:11:25.576Z,100682.28
2022-09-06T12:14:04.357Z,100676.25
2022-09-06T12:17:30.453Z,100669.84
2022-09-06T12:20:07.524Z,100665.69
2022-09-06T12:23:03.567Z,100653.41
2022-09-06T12:25:58.150Z,100658.59
2022-09-06T12:28:49.899Z,100654.50
2022-09-06T12:31:32.867Z,100658.16
2022-09-06T12:34:12.755Z,100654.50
2022-09-06T12:36:58.633Z,100646.94
2022-09-06T12:39:33.526Z,100645.12
2022-09-06T12:42:14.356Z,100650.41
2022-09-06T12:44:50.969Z,100644.44
2022-09-06T12:47:29.281Z,100638.22
2022-09-06T12:50:14.459Z,100630.88
2022-09-06T12:52:52.092Z,100625.25
2022-09-06T12:55:28.535Z,100619.03
2022-09-06T12:58:05.038Z,100623.16
2022-09-06T13:00:43.401Z,100615.75
2022-09-06T13:03:28.809Z,100617.97
2022-09-06T13:06:06.696Z,100608.56
2022-09-06T13:08:47.552Z,100599.16
2022-09-06T13:11:27.261Z,100592.50
2022-09-06T13:14:04.017Z,100595.16
2022-09-06T13:16:44.948Z,100596.31
2022-09-06T13:19:30.652Z,100592.00
2022-09-06T13:22:07.807Z,100584.72
2022-09-06T13:24:49.177Z,100580.66
2022-09-06T13:27:25.182Z,100567.88
2022-09-06T13:30:01.025Z,100565.38
2022-09-06T13:32:36.785Z,100565.53
2022-09-06T13:35:10.944Z,100573.09
2022-09-06T13:37:52.052Z,100562.44
2022-09-06T13:41:06.954Z,100566.72
2022-09-06T13:43:45.069Z,100558.75
2022-09-06T13:46:19.274Z,100548.94
2022-09-06T13:48:55.198Z,100548.44
2022-09-06T13:51:29.440Z,100556.06
2022-09-06T13:54:08.295Z,100542.47
2022-09-06T13:56:44.784Z,100551.50
2022-09-06T13:59:19.484Z,100553.19
2022-09-06T14:02:03.035Z,100542.19
2022-09-06T14:04:37.856Z,100543.44
2022-09-06T14:07:12.092Z,100542.25
2022-09-06T14:09:47.563Z,100528.09
2022-09-06T14:12:23.109Z,100527.88
2022-09-06T14:14:57.561Z,100535.94
2022-09-06T14:17:32.957Z,100527.81
2022-09-06T14:20:08.753Z,100529.03
2022-09-06T14:22:42.823Z,100524.28
2022-09-06T14:25:17.323Z,100515.16
2022-09-06T14:27:52.809Z,100526.44
2022-09-06T14:30:27.233Z,100517.88
2022-09-06T14:33:01.347Z,100513.62
2022-09-06T14:35:35.892Z,100517.16
2022-09-06T14:38:10.364Z,100502.66
2022-09-06T14:40:44.793Z,100509.56
2022-09-06T14:43:20.289Z,100506.16
2022-09-06T14:45:54.731Z,100507.19
2022-09-06T14:48:31.452Z,100496.97
2022-09-06T14:51:10.340Z,100494.81
2022-09-06T14:53:45.839Z,100493.12
2022-09-06T14:56:21.381Z,100494.56
2022-09-06T14:58:59.883Z,100491.66
2022-09-06T15:01:38.320Z,100497.00
2022-09-06T15:04:13.330Z,100493.03
2022-09-06T15:06:48.518Z,100491.59
2022-09-06T15:09:22.847Z,100481.81
2022-09-06T15:11:57.346Z,100493.44
2022-09-06T15:14:34.099Z,100484.66
2022-09-06T15:17:09.052Z,100486.34
2022-09-06T15:19:43.185Z,100491.09
2022-09-06T15:22:17.653Z,100484.91
2022-09-06T15:24:51.940Z,100482.47
2022-09-06T15:27:26.367Z,100490.91
2022-09-06T15:30:01.837Z,100483.78
2022-09-06T15:32:36.317Z,100485.09
2022-09-06T15:35:10.649Z,100473.41
2022-09-06T15:37:45.680Z,100474.03
2022-09-06T15:40:24.420Z,100461.44
2022-09-06T15:42:58.821Z,100468.59
2022-09-06T15:45:47.306Z,100464.09
2022-09-06T15:48:21.773Z,100470.13
2022-09-06T15:50:55.886Z,100473.88
2022-09-06T15:53:30.367Z,100469.38
2022-09-06T15:56:04.992Z,100465.41
2022-09-06T15:58:39.799Z,100466.19
2022-09-06T16:01:18.439Z,100475.41
2022-09-06T16:03:55.701Z,100475.41
2022-09-06T16:06:32.528Z,100471.97
2022-09-06T16:09:09.821Z,100469.16
2022-09-06T16:11:45.274Z,100466.88
2022-09-06T16:14:20.320Z,100466.72
2022-09-06T16:16:57.602Z,100465.19
2022-09-06T16:19:32.352Z,100466.91
2022-09-06T16:22:06.641Z,100468.22
2022-09-06T16:24:41.081Z,100472.69
2022-09-06T16:27:15.371Z,100469.47
2022-09-06T16:29:50.004Z,100473.00
2022-09-06T16:32:25.838Z,100476.91
2022-09-06T16:35:01.041Z,100473.69
2022-09-06T16:37:35.253Z,100475.75
2022-09-06T16:40:11.223Z,100479.88
2022-09-06T16:42:45.482Z,100482.31
2022-09-06T16:45:19.964Z,100474.97
2022-09-06T16:47:55.469Z,100470.47
2022-09-06T16:50:29.993Z,100475.91
2022-09-06T16:53:04.222Z,100478.50
2022-09-06T16:55:39.384Z,100478.34
2022-09-06T16:58:15.769Z,100474.94
2022-09-06T17:00:52.472Z,100473.81
2022-09-06T17:03:28.544Z,100478.31
2022-09-06T17:06:03.708Z,100476.56
2022-09-06T17:08:38.606Z,100483.94
2022-09-06T17:11:15.873Z,100494.44
2022-09-06T17:13:52.243Z,100508.81
2022-09-06T17:16:44.899Z,100511.44
2022-09-06T17:19:20.643Z,100512.81
2022-09-06T17:21:55.403Z,100509.34
2022-09-06T17:24:29.748Z,100515.91
2022-09-06T17:27:04.659Z,100527.97
2022-09-06T17:29:40.140Z,100529.03
2022-09-06T17:32:14.685Z,100537.59
2022-09-06T17:34:50.364Z,100537.19
2022-09-06T17:37:24.962Z,100532.69
2022-09-06T17:39:59.360Z,100527.94
2022-09-06T17:42:33.974Z,100528.47
2022-09-06T17:45:09.086Z,100531.41
2022-09-06T17:47:43.650Z,100533.78
2022-09-06T17:50:19.805Z,100540.12
2022-09-06T17:52:54.433Z,100541.16
2022-09-06T17:55:30.096Z,100544.50
2022-09-06T17:58:04.658Z,100555.94
2022-09-06T18:00:39.802Z,100554.53
2022-09-06T18:03:14.560Z,100555.59
2022-09-06T18:05:50.204Z,100557.56
2022-09-06T18:08:27.151Z,100570.59
2022-09-06T18:11:07.285Z,100565.53
2022-09-06T18:13:43.218Z,100568.22
2022-09-06T18:16:17.574Z,100568.31
2022-09-06T18:18:53.524Z,100574.69
2022-09-06T18:21:30.994Z,100562.47
2022-09-06T18:24:06.745Z,100565.94
2022-09-06T18:26:41.247Z,100570.56
2022-09-06T18:29:18.503Z,100568.25
2022-09-06T18:31:54.132Z,100576.28
2022-09-06T18:34:28.773Z,100564.47
2022-09-06T18:37:05.318Z,100577.38
2022-09-06T18:39:42.486Z,100572.19
2022-09-06T18:42:16.793Z,100574.34
2022-09-06T18:44:51.453Z,100582.22
2022-09-06T18:47:25.880Z,100570.78
2022-09-06T18:50:01.162Z,100573.94
2022-09-06T18:52:38.481Z,100575.63
2022-09-06T18:55:13.080Z,100577.75
2022-09-06T18:57:47.676Z,100582.59
2022-09-06T19:00:22.305Z,100583.22
2022-09-06T19:02:56.568Z,100575.31
2022-09-06T19:05:31.253Z,100582.13
2022-09-06T19:08:06.930Z,100575.00
2022-09-06T19:10:41.456Z,100570.59
2022-09-06T19:13:15.794Z,100575.75
2022-09-06T19:15:51.191Z,100584.25
2022-09-06T19:18:26.039Z,100584.78
2022-09-06T19:21:01.208Z,100581.09
2022-09-06T19:23:39.995Z,100584.06
2022-09-06T19:26:17.471Z,100580.81
2022-09-06T19:28:53.724Z,100583.16
2022-09-06T19:31:31.144Z,100580.97
2022-09-06T19:34:05.983Z,100582.78
2022-09-06T19:36:40.604Z,100573.13
2022-09-06T19:39:17.528Z,100575.47
2022-09-06T19:41:52.050Z,100564.59
2022-09-06T19:44:26.105Z,100574.81
2022-09-06T19:47:00.779Z,100571.16
2022-09-06T19:49:35.014Z,100565.56
2022-09-06T19:52:11.647Z,100573.22
2022-09-06T19:54:47.077Z,100568.66
2022-09-06T19:57:21.452Z,100561.25
2022-09-06T19:59:56.109Z,100563.22
2022-09-06T20:02:30.586Z,100564.66
2022-09-06T20:05:05.261Z,100555.59
2022-09-06T20:07:39.528Z,100558.44
2022-09-06T20:10:16.014Z,100558.63
2022-09-06T20:12:52.062Z,100567.41
2022-09-06T20:16:28.832Z,100559.13
2022-09-06T20:19:03.445Z,100559.13
2022-09-06T20:21:37.577Z,100557.16
2022-09-06T20:24:11.984Z,100564.59
2022-09-06T20:26:46.011Z,100563.59
2022-09-06T20:29:20.848Z,100563.28
2022-09-06T20:31:56.354Z,100569.72
2022-09-06T20:34:31.477Z,100564.75
2022-09-06T20:37:05.639Z,100573.06
2022-09-06T20:39:40.148Z,100566.63
2022-09-06T20:42:14.346Z,100567.69
2022-09-06T20:44:48.690Z,100570.47
2022-09-06T20:47:24.194Z,100568.91
2022-09-06T20:49:58.583Z,100558.00
2022-09-06T20:52:32.639Z,100568.84
2022-09-06T20:55:08.250Z,100569.81
2022-09-06T20:57:43.397Z,100568.66
2022-09-06T21:00:18.048Z,100571.25
2022-09-06T21:02:53.475Z,100562.63
2022-09-06T21:05:28.182Z,100564.03
2022-09-06T21:08:02.280Z,100567.06
2022-09-06T21:10:36.704Z,100570.16
2022-09-06T21:13:10.979Z,100566.25
2022-09-06T21:15:49.103Z,100560.41
2022-09-06T21:18:25.261Z,100566.31
2022-09-06T21:21:01.652Z,100563.22
2022-09-06T21:23:38.243Z,100567.19
2022-09-06T21:26:15.883Z,100558.34
2022-09-06T21:28:50.748Z,100558.19
2022-09-06T21:31:27.084Z,100555.75
2022-09-06T21:34:05.075Z,100563.03
2022-09-06T21:36:40.284Z,100556.03
2022-09-06T21:39:14.957Z,100565.81
2022-09-06T21:41:49.424Z,100567.91
2022-09-06T21:44:23.620Z,100560.62
2022-09-06T21:46:58.953Z,100563.00
2022-09-06T21:49:34.500Z,100567.16
2022-09-06T21:52:08.948Z,100554.66
2022-09-06T21:54:43.047Z,100560.22
2022-09-06T21:57:18.043Z,100562.53
2022-09-06T21:59:52.197Z,100562.28
2022-09-06T22:02:27.262Z,100563.88
2022-09-06T22:05:06.562Z,100563.66
2022-09-06T22:07:40.674Z,100563.69
2022-09-06T22:10:15.296Z,100571.84
2022-09-06T22:12:49.385Z,100561.84
2022-09-06T22:15:23.877Z,100562.41
2022-09-06T22:17:58.002Z,100559.94
2022-09-06T22:20:33.747Z,100565.53
2022-09-06T22:23:10.019Z,100557.88
2022-09-06T22:25:44.402Z,100545.69
2022-09-06T22:28:18.449Z,100554.09
2022-09-06T22:30:52.785Z,100546.22
2022-09-06T22:33:27.384Z,100561.22
2022-09-06T22:36:03.781Z,100558.50
2022-09-06T22:38:38.256Z,100558.56
2022-09-06T22:41:12.845Z,100558.28
2022-09-06T22:43:46.918Z,100552.72
2022-09-06T22:46:21.608Z,100555.41
2022-09-06T22:48:56.543Z,100550.56
2022-09-06T22:51:32.417Z,100554.31
2022-09-06T22:54:06.764Z,100554.44
2022-09-06T22:56:43.843Z,100558.09
2022-09-06T22:59:18.169Z,100554.28
2022-09-06T23:01:52.552Z,100556.63
2022-09-06T23:04:26.609Z,100547.81
2022-09-06T23:07:02.727Z,100539.25
2022-09-06T23:09:36.988Z,100537.47
2022-09-06T23:12:12.068Z,100535.19
2022-09-06T23:14:46.320Z,100534.44
2022-09-06T23:17:20.759Z,100542.06
2022-09-06T23:19:55.527Z,100543.62
2022-09-06T23:22:31.666Z,100538.31
2022-09-06T23:25:07.233Z,100537.53
2022-09-06T23:27:41.572Z,100534.75
2022-09-06T23:30:17.404Z,100530.97
2022-09-06T23:32:51.777Z,100541.38
2022-09-06T23:35:26.040Z,100540.84
2022-09-06T23:38:01.881Z,100534.25
2022-09-06T23:40:36.156Z,100542.63
2022-09-06T23:43:14.554Z,100541.13
2022-09-06T23:45:48.728Z,100543.41
2022-09-06T23:48:23.355Z,100539.88
2022-09-06T23:50:57.546Z,100529.22
2022-09-06T23:53:34.066Z,100534.06
2022-09-06T23:56:08.584Z,100531.28
2022-09-06T23:58:43.187Z,100536.06
